Tuesday, September 02, 2014
14:08 UTC
  |  Log In   |  Register Free
Airport Search:

Live Oak County Airport
(8T6)

Live Oak County Airport Diagram
No Airport Diagram Available

FAA data valid effective July 24, 2014 until September 18, 2014 (unless otherwise noted).

 
 
 
 
 
 
 
 
 
 
 
 
 
 

Current Aviation Weather for Live Oak County Airport (8T6)

The most recent METAR observation for KBEA was updated at: 1255 UTC
METAR Summary (Translated METAR)
KBEA
021255Z AUTO 00000KT 7SM SCT025 25/25 A2993 RMK AO2 T02500250
KRBO
(35.4 nm SE from KBEA)
021255Z AUTO 12006KT 10SM SCT020 SCT027 28/25 A2992 RMK AO2 T02750254
TAF Summary (Translated TAF)
KCRP
(38.7 nm SE from KBEA)
021128Z 0212/0312 13006KT P6SM SCT016 TEMPO 0212/0214 BKN016 FM021400 15010G18KT P6SM VCSH BKN025 TEMPO 0214/0218 4SM TSRA BKN018CB FM021800 13014G21KT P6SM VCTS BKN030CB TEMPO 0218/0222 5SM -TSRA OVC025CB FM030100 13013KT P6SM SCT020 BKN120 TEMPO 0303/0306 BKN020 FM030800 12009KT P6SM VCSH BKN018 BKN100 PROB30 0308/0312 5SM -TSRA BKN012CB
  Airport Weather Conditions for 8T6

Current weather conditions are
not available for 8T6


The nearest NOAA weather station
is at BEA, (17.2 nm SE from 8T6)
  
 Current Weather at BEA
77° F
Partly Cloudy
North winds at 0.0 mph
BEA NOAA Radar

Pressure: 29.93 in
Humidity: 100%
Wind: Calm
Dew Point: 77.0°F
Visibility: 7.00 mi


Airport Weather Forecast for 8T6

Translated METAR and TAF for KBEA
Translated METAR for KBEA (1402 UTC 02 September 2014)
found at http://aviationweather.gov/adds/metars/
 
METAR text: KBEA 021355Z AUTO 13005KT 10SM CLR 28/26 A2994 RMK AO2 T02780258
Conditions at: KBEA (BEEVILLE MUNI , TX, US) observed 1355 UTC 02 September 2014
Temperature: 27.8°C (82°F)
Dewpoint: 25.8°C (78°F) [RH = 89%]
Pressure (altimeter): 29.94 inches Hg (1014.0 mb)
Winds: from the SE (130 degrees) at 6 MPH (5 knots; 2.6 m/s)
Visibility: 10 or more miles (16+ km)
Ceiling: at least 12,000 feet AGL
Clouds: sky clear below 12,000 feet AGL
Weather: automated observation with no human augmentation;
there may or may not be significant weather present at this time
Translated TAF for KBEA

There is no translated TAF available for this airport

Find All Airport Services Find A Hotel Find A Rental Car Find A Golf Course Find A Restaurant $100 Hamburger



FBO's on the Field
FBO Company Facility Photos Services Transportation Aviation Fuel Prices: Prices include tax
Catering Weather Repair Courtesy Rental Type 100LL JetA JetA+ MOGAS 8087
 
Live Oak Co. Airport

This FBO has not yet been rated
FS:Avfuel
Last Updated: Aug-29
Login to update fuel prices
SS:
Contact Live Oak Co. AirportMore FBO Information
 
Add another FBO Facility Photos Catering Weather Repair Courtesy Rental Type 100LL JetA JetA+ MOGAS 8087
Services Transportation Aviation Fuel Prices: Prices include tax


GlobalAir.com Airport Resource Center model-print
model-print
model-print
model-print